createdAt,value
2023-02-11T00:00:19.653Z,20.90
2023-02-11T00:02:48.039Z,21.98
2023-02-11T00:05:15.600Z,20.05
2023-02-11T00:07:42.848Z,20.70
2023-02-11T00:10:10.315Z,19.75
2023-02-11T00:12:38.337Z,20.25
2023-02-11T00:15:06.677Z,20.33
2023-02-11T00:17:34.176Z,19.90
2023-02-11T00:20:01.389Z,20.25
2023-02-11T00:22:28.773Z,20.20
2023-02-11T00:24:57.226Z,21.10
2023-02-11T00:27:24.468Z,21.42
2023-02-11T00:29:51.773Z,21.60
2023-02-11T00:32:19.014Z,20.80
2023-02-11T00:34:46.263Z,22.05
2023-02-11T00:37:13.767Z,21.60
2023-02-11T00:39:41.023Z,19.27
2023-02-11T00:42:08.293Z,20.92
2023-02-11T00:44:35.536Z,19.38
2023-02-11T00:47:02.810Z,19.08
2023-02-11T00:49:30.114Z,21.15
2023-02-11T00:51:57.406Z,21.75
2023-02-11T00:54:24.717Z,19.92
2023-02-11T00:56:51.940Z,19.90
2023-02-11T00:59:19.208Z,23.42
2023-02-11T01:01:46.489Z,24.63
2023-02-11T01:04:13.800Z,22.95
2023-02-11T01:06:41.014Z,22.00
2023-02-11T01:09:08.255Z,23.02
2023-02-11T01:11:35.651Z,22.10
2023-02-11T01:14:03.278Z,21.48
2023-02-11T01:16:30.585Z,21.98
2023-02-11T01:18:58.979Z,21.85
2023-02-11T01:21:26.615Z,21.27
2023-02-11T01:23:53.856Z,22.65
2023-02-11T01:26:21.096Z,22.17
2023-02-11T01:28:48.359Z,20.40
2023-02-11T01:31:15.684Z,22.25
2023-02-11T01:33:43.206Z,21.05
2023-02-11T01:36:11.625Z,22.13
2023-02-11T01:38:40.940Z,22.27
2023-02-11T01:41:09.818Z,21.05
2023-02-11T01:43:38.583Z,23.67
2023-02-11T01:46:24.442Z,21.02
2023-02-11T01:48:54.111Z,22.02
2023-02-11T01:51:33.973Z,22.02
2023-02-11T01:54:20.364Z,21.77
2023-02-11T01:57:07.920Z,22.48
2023-02-11T02:00:04.581Z,22.42
2023-02-11T02:02:41.566Z,21.75
2023-02-11T02:05:25.283Z,20.33
2023-02-11T02:08:01.674Z,23.90
2023-02-11T02:10:29.810Z,22.85
2023-02-11T02:12:57.069Z,22.77
2023-02-11T02:15:26.340Z,22.40
2023-02-11T02:17:56.993Z,21.67
2023-02-11T02:20:39.577Z,22.83
2023-02-11T02:23:13.937Z,24.10
2023-02-11T02:25:41.169Z,22.25
2023-02-11T02:28:12.727Z,22.92
2023-02-11T02:30:46.248Z,21.77
2023-02-11T02:33:23.899Z,22.65
2023-02-11T02:35:57.875Z,23.58
2023-02-11T02:38:34.722Z,24.17
2023-02-11T02:41:08.957Z,25.58
2023-02-11T02:43:37.628Z,22.63
2023-02-11T02:46:11.921Z,23.05
2023-02-11T02:48:39.527Z,23.35
2023-02-11T02:51:25.640Z,24.70
2023-02-11T02:53:52.853Z,22.23
2023-02-11T02:56:23.112Z,24.35
2023-02-11T02:58:56.208Z,23.20
2023-02-11T03:01:34.045Z,24.35
2023-02-11T03:04:01.354Z,23.70
2023-02-11T03:06:35.087Z,23.67
2023-02-11T03:09:11.150Z,23.25
2023-02-11T03:11:39.074Z,23.60
2023-02-11T03:14:08.871Z,22.98
2023-02-11T03:16:39.417Z,22.85
2023-02-11T03:19:14.429Z,24.13
2023-02-11T03:21:42.969Z,24.05
2023-02-11T03:24:20.201Z,25.90
2023-02-11T03:26:50.415Z,25.40
2023-02-11T03:29:20.367Z,25.00
2023-02-11T03:31:55.414Z,25.40
2023-02-11T03:34:31.598Z,23.38
2023-02-11T03:37:02.665Z,24.77
2023-02-11T03:39:32.749Z,26.20
2023-02-11T03:42:00.953Z,25.30
2023-02-11T03:44:30.990Z,26.70
2023-02-11T03:46:58.420Z,25.42
2023-02-11T03:49:28.055Z,24.80
2023-02-11T03:51:55.705Z,25.85
2023-02-11T03:54:28.380Z,23.77
2023-02-11T03:56:56.664Z,24.92
2023-02-11T03:59:23.952Z,25.33
2023-02-11T04:01:51.197Z,26.40
2023-02-11T04:04:18.425Z,26.85
2023-02-11T04:06:45.819Z,26.65
2023-02-11T04:09:13.344Z,27.42
2023-02-11T04:11:40.607Z,25.10
2023-02-11T04:14:07.839Z,26.00
2023-02-11T04:16:35.174Z,25.20
2023-02-11T04:19:02.443Z,25.15
2023-02-11T04:21:29.778Z,26.92
2023-02-11T04:23:57.011Z,25.35
2023-02-11T04:26:24.277Z,25.52
2023-02-11T04:28:51.536Z,26.10
2023-02-11T04:31:18.806Z,26.58
2023-02-11T04:33:46.283Z,26.58
2023-02-11T04:36:13.601Z,25.52
2023-02-11T04:38:40.909Z,27.85
2023-02-11T04:41:08.214Z,26.38
2023-02-11T04:43:35.539Z,26.05
2023-02-11T04:46:02.842Z,25.05
2023-02-11T04:48:30.189Z,26.58
2023-02-11T04:50:57.402Z,26.55
2023-02-11T04:53:24.642Z,28.73
2023-02-11T04:55:52.348Z,25.63
2023-02-11T04:58:20.394Z,26.58
2023-02-11T05:00:47.769Z,24.90
2023-02-11T05:03:15.064Z,26.02
2023-02-11T05:05:43.113Z,27.55
2023-02-11T05:08:10.801Z,26.73
2023-02-11T05:10:38.383Z,26.83
2023-02-11T05:13:05.703Z,24.83
2023-02-11T05:15:32.930Z,25.15
2023-02-11T05:18:00.207Z,27.90
2023-02-11T05:20:27.411Z,25.13
2023-02-11T05:22:54.723Z,28.23
2023-02-11T05:25:22.057Z,27.52
2023-02-11T05:27:49.361Z,25.67
2023-02-11T05:30:16.971Z,25.83
2023-02-11T05:32:44.210Z,27.15
2023-02-11T05:35:11.489Z,26.38
2023-02-11T05:37:38.873Z,26.45
2023-02-11T05:40:06.487Z,26.88
2023-02-11T05:42:33.763Z,26.73
2023-02-11T05:45:01.024Z,26.38
2023-02-11T05:47:28.274Z,27.80
2023-02-11T05:49:55.562Z,25.52
2023-02-11T05:52:23.264Z,28.13
2023-02-11T05:54:50.850Z,27.38
2023-02-11T05:57:18.322Z,27.60
2023-02-11T05:59:45.561Z,26.70
2023-02-11T06:02:12.983Z,26.63
2023-02-11T06:04:40.314Z,25.25
2023-02-11T06:07:07.578Z,27.20
2023-02-11T06:09:34.879Z,27.80
2023-02-11T06:12:02.092Z,25.60
2023-02-11T06:14:29.313Z,28.67
2023-02-11T06:16:56.559Z,27.73
2023-02-11T06:19:23.769Z,29.27
2023-02-11T06:21:51.001Z,28.15
2023-02-11T06:24:38.277Z,28.90
2023-02-11T06:27:05.776Z,27.95
2023-02-11T06:29:32.978Z,29.13
2023-02-11T06:32:00.407Z,27.27
2023-02-11T06:34:28.173Z,28.55
2023-02-11T06:36:55.452Z,30.80
2023-02-11T06:39:22.694Z,27.63
2023-02-11T06:41:49.953Z,28.85
2023-02-11T06:44:17.304Z,27.83
2023-02-11T06:46:44.645Z,27.88
2023-02-11T06:49:11.925Z,26.83
2023-02-11T06:51:39.169Z,30.13
2023-02-11T06:54:07.299Z,28.83
2023-02-11T06:56:34.993Z,27.23
2023-02-11T06:59:02.579Z,29.00
2023-02-11T07:01:29.893Z,29.50
2023-02-11T07:03:57.419Z,28.25
2023-02-11T07:06:28.075Z,27.17
2023-02-11T07:08:56.079Z,28.23
2023-02-11T07:11:24.795Z,28.67
2023-02-11T07:13:52.996Z,27.27
2023-02-11T07:16:20.660Z,29.20
2023-02-11T07:18:48.365Z,27.63
2023-02-11T07:21:16.696Z,28.23
2023-02-11T07:23:44.023Z,28.08
2023-02-11T07:26:12.436Z,28.15
2023-02-11T07:28:40.488Z,29.85
2023-02-11T07:31:18.252Z,29.42
2023-02-11T07:33:48.877Z,27.65
2023-02-11T07:36:17.202Z,29.77
2023-02-11T07:38:44.601Z,29.67
2023-02-11T07:41:12.779Z,30.48
2023-02-11T07:43:40.607Z,28.95
2023-02-11T07:46:09.794Z,29.27
2023-02-11T07:48:37.074Z,26.83
2023-02-11T07:51:07.306Z,30.80
2023-02-11T07:53:34.589Z,28.88
2023-02-11T07:56:01.865Z,27.33
2023-02-11T07:58:29.062Z,29.48
2023-02-11T08:00:56.382Z,29.00
2023-02-11T08:03:23.727Z,28.50
2023-02-11T08:05:51.214Z,27.95
2023-02-11T08:08:18.562Z,27.95
2023-02-11T08:10:45.789Z,29.88
2023-02-11T08:13:13.082Z,27.33
2023-02-11T08:15:40.350Z,27.75
2023-02-11T08:18:08.741Z,27.88
2023-02-11T08:20:36.055Z,27.58
2023-02-11T08:23:03.296Z,28.33
2023-02-11T08:25:30.530Z,27.83
2023-02-11T08:27:57.778Z,27.60
2023-02-11T08:30:27.230Z,29.27
2023-02-11T08:32:54.772Z,28.42
2023-02-11T08:35:22.092Z,30.40
2023-02-11T08:37:49.297Z,29.45
2023-02-11T08:40:16.617Z,28.67
2023-02-11T08:42:43.832Z,27.80
2023-02-11T08:45:12.461Z,28.52
2023-02-11T08:47:40.009Z,28.20
2023-02-11T08:50:07.491Z,29.08
2023-02-11T08:52:34.727Z,30.00
2023-02-11T08:55:02.013Z,29.75
2023-02-11T08:57:29.258Z,27.80
2023-02-11T08:59:56.501Z,27.90
2023-02-11T09:02:23.801Z,28.15
2023-02-11T09:04:51.000Z,28.90
2023-02-11T09:07:18.327Z,28.77
2023-02-11T09:09:45.552Z,28.05
2023-02-11T09:12:12.802Z,26.85
2023-02-11T09:14:41.400Z,28.02
2023-02-11T09:17:08.674Z,26.98
2023-02-11T09:19:36.260Z,28.55
2023-02-11T09:22:03.643Z,28.10
2023-02-11T09:24:30.882Z,27.60
2023-02-11T09:26:58.191Z,28.20
2023-02-11T09:29:25.514Z,26.75
2023-02-11T09:31:52.934Z,27.48
2023-02-11T09:34:20.246Z,28.20
2023-02-11T09:36:47.526Z,28.67
2023-02-11T09:39:19.681Z,27.90
2023-02-11T09:41:56.121Z,28.08
2023-02-11T09:44:24.755Z,28.65
2023-02-11T09:47:00.247Z,28.60
2023-02-11T09:49:56.663Z,27.38
2023-02-11T09:52:23.884Z,29.52
2023-02-11T09:54:55.672Z,26.45
2023-02-11T09:57:28.813Z,28.05
2023-02-11T09:59:57.805Z,27.30
2023-02-11T10:02:38.111Z,28.63
2023-02-11T10:05:14.539Z,28.58
2023-02-11T10:07:47.320Z,28.00
2023-02-11T10:13:26.228Z,26.98
2023-02-11T10:16:08.934Z,27.10
2023-02-11T10:18:51.576Z,26.95
2023-02-11T10:21:30.615Z,27.58
2023-02-11T10:24:00.885Z,27.25
2023-02-11T10:26:30.994Z,28.65
2023-02-11T10:29:01.491Z,29.42
2023-02-11T10:31:34.958Z,27.13
2023-02-11T10:34:07.670Z,25.83
2023-02-11T10:36:36.720Z,25.35
2023-02-11T10:39:13.051Z,26.67
2023-02-11T10:41:45.173Z,28.27
2023-02-11T10:44:22.728Z,27.05
2023-02-11T10:46:50.660Z,27.20
2023-02-11T10:49:37.682Z,26.98
2023-02-11T10:52:13.937Z,27.00
2023-02-11T10:54:41.181Z,26.60
2023-02-11T10:57:17.200Z,27.30
2023-02-11T10:59:44.442Z,27.75
2023-02-11T11:02:34.580Z,27.10
2023-02-11T11:05:22.674Z,24.08
2023-02-11T11:07:57.773Z,27.13
2023-02-11T11:10:29.784Z,26.15
2023-02-11T11:12:57.286Z,24.77
2023-02-11T11:15:28.441Z,28.48
2023-02-11T11:18:21.258Z,25.55
2023-02-11T11:20:57.423Z,27.70
2023-02-11T11:23:25.449Z,28.60
2023-02-11T11:26:01.994Z,27.85
2023-02-11T11:28:30.320Z,26.50
2023-02-11T11:30:58.825Z,25.90
2023-02-11T11:33:30.668Z,27.45
2023-02-11T11:36:11.172Z,26.60
2023-02-11T11:38:43.693Z,29.02
2023-02-11T11:41:20.177Z,28.05
2023-02-11T11:43:57.808Z,27.23
2023-02-11T11:46:29.800Z,29.67
2023-02-11T11:48:59.630Z,27.85
2023-02-11T11:51:26.934Z,27.23
2023-02-11T11:53:58.303Z,26.88
2023-02-11T11:56:27.021Z,26.55
2023-02-11T11:58:54.725Z,26.60
2023-02-11T12:01:32.202Z,25.48
2023-02-11T12:04:05.695Z,28.50
2023-02-11T12:06:51.473Z,27.55
2023-02-11T12:11:57.021Z,26.73
2023-02-11T12:14:24.262Z,27.25
2023-02-11T12:16:51.533Z,27.20
2023-02-11T12:19:24.979Z,27.20
2023-02-11T12:22:11.496Z,28.08
2023-02-11T12:24:38.689Z,29.08
2023-02-11T12:27:18.248Z,26.17
2023-02-11T12:29:45.506Z,27.48
2023-02-11T12:32:24.546Z,26.15
2023-02-11T12:34:51.773Z,27.42
2023-02-11T12:37:51.648Z,27.95
2023-02-11T12:40:31.959Z,27.25
2023-02-11T12:43:17.428Z,27.30
2023-02-11T12:45:59.467Z,26.58
2023-02-11T12:48:35.823Z,27.00
2023-02-11T12:51:03.177Z,26.17
2023-02-11T12:53:33.370Z,25.80
2023-02-11T12:56:11.775Z,24.73
2023-02-11T12:58:45.556Z,25.48
2023-02-11T13:01:33.445Z,25.73
2023-02-11T13:04:08.580Z,26.83
2023-02-11T13:06:45.616Z,28.25
2023-02-11T13:09:19.018Z,25.83
2023-02-11T13:11:52.102Z,25.35
2023-02-11T13:14:25.201Z,24.30
2023-02-11T13:16:53.464Z,25.75
2023-02-11T13:19:29.763Z,25.77
2023-02-11T13:22:03.826Z,28.05
2023-02-11T13:24:57.475Z,25.17
2023-02-11T13:27:38.270Z,24.35
2023-02-11T13:30:14.876Z,25.42
2023-02-11T13:33:02.032Z,24.52
2023-02-11T13:35:30.906Z,26.92
2023-02-11T13:37:59.748Z,24.95
2023-02-11T13:40:28.892Z,26.35
2023-02-11T13:42:58.340Z,25.30
2023-02-11T13:45:43.818Z,26.65
2023-02-11T13:48:24.165Z,24.35
2023-02-11T13:50:52.893Z,24.25
2023-02-11T13:53:21.168Z,24.73
2023-02-11T13:55:50.592Z,24.67
2023-02-11T13:58:37.267Z,24.42
2023-02-11T14:01:04.679Z,25.05
2023-02-11T14:03:55.752Z,24.33
2023-02-11T14:06:43.473Z,24.38
2023-02-11T14:09:11.489Z,25.13
2023-02-11T14:11:44.713Z,23.95
2023-02-11T14:14:18.301Z,23.95
2023-02-11T14:16:57.867Z,24.30
2023-02-11T14:19:35.154Z,24.45
2023-02-11T14:22:06.840Z,24.92
2023-02-11T14:24:34.930Z,24.33
2023-02-11T14:27:34.720Z,23.45
2023-02-11T14:30:07.881Z,22.70
2023-02-11T14:32:53.852Z,22.25
2023-02-11T14:35:21.104Z,22.75
2023-02-11T14:37:50.675Z,22.70
2023-02-11T14:40:22.472Z,23.17
2023-02-11T14:42:51.353Z,23.80
2023-02-11T14:45:26.677Z,23.48
2023-02-11T14:47:53.922Z,22.60
2023-02-11T14:50:26.502Z,22.30
2023-02-11T14:52:54.160Z,24.23
2023-02-11T14:55:21.371Z,21.45
2023-02-11T14:57:50.957Z,23.30
2023-02-11T15:00:22.410Z,22.40
2023-02-11T15:02:49.878Z,20.85
2023-02-11T15:05:27.820Z,20.73
2023-02-11T15:08:00.138Z,20.75
2023-02-11T15:10:36.008Z,19.40
2023-02-11T15:13:04.332Z,20.05
2023-02-11T15:15:32.956Z,20.65
2023-02-11T15:18:02.475Z,21.27
2023-02-11T15:20:32.040Z,20.83
2023-02-11T15:23:03.697Z,20.73
2023-02-11T15:25:33.808Z,20.58
2023-02-11T15:28:01.693Z,20.92
2023-02-11T15:30:34.302Z,21.25
2023-02-11T15:33:06.896Z,20.90
2023-02-11T15:35:38.833Z,21.02
2023-02-11T15:38:06.395Z,22.65
2023-02-11T15:40:37.520Z,22.40
2023-02-11T15:43:09.142Z,22.30
2023-02-11T15:45:41.055Z,22.48
2023-02-11T15:48:14.414Z,24.73
2023-02-11T15:50:42.894Z,23.95
2023-02-11T15:53:25.558Z,24.30
2023-02-11T15:55:54.791Z,23.73
2023-02-11T15:58:22.724Z,24.30
2023-02-11T16:00:56.728Z,24.00
2023-02-11T16:03:25.143Z,25.33
2023-02-11T16:05:52.612Z,23.55
2023-02-11T16:08:24.501Z,26.25
2023-02-11T16:10:58.668Z,24.08
2023-02-11T16:13:28.348Z,23.55
2023-02-11T16:15:55.806Z,23.92
2023-02-11T16:18:31.062Z,22.10
2023-02-11T16:21:04.841Z,23.48
2023-02-11T16:23:44.903Z,22.63
2023-02-11T16:26:23.130Z,22.40
2023-02-11T16:28:50.580Z,21.90
2023-02-11T16:31:18.165Z,23.45
2023-02-11T16:33:45.472Z,23.85
2023-02-11T16:36:13.758Z,23.70
2023-02-11T16:38:41.385Z,25.50
2023-02-11T16:41:11.878Z,30.35
2023-02-11T16:43:40.185Z,41.63
2023-02-11T16:46:08.877Z,29.23
2023-02-11T16:48:36.194Z,26.50
2023-02-11T16:51:03.728Z,26.30
2023-02-11T16:53:31.593Z,26.10
2023-02-11T16:55:58.847Z,26.55
2023-02-11T16:58:26.218Z,26.88
2023-02-11T17:00:53.819Z,39.92
2023-02-11T17:03:23.910Z,46.08
2023-02-11T17:05:55.699Z,28.75
2023-02-11T17:08:23.367Z,24.48
2023-02-11T17:10:50.907Z,27.40
2023-02-11T17:13:18.300Z,26.15
2023-02-11T17:15:45.562Z,24.60
2023-02-11T17:18:14.426Z,25.98
2023-02-11T17:20:42.256Z,25.38
2023-02-11T17:23:09.791Z,24.17
2023-02-11T17:25:37.518Z,24.52
2023-02-11T17:28:09.379Z,25.65
2023-02-11T17:30:36.682Z,24.95
2023-02-11T17:33:03.947Z,24.10
2023-02-11T17:35:31.347Z,23.55
2023-02-11T17:37:59.279Z,24.98
2023-02-11T17:40:26.673Z,27.02
2023-02-11T17:42:53.890Z,24.83
2023-02-11T17:45:22.406Z,25.88
2023-02-11T17:47:50.035Z,26.25
2023-02-11T17:50:17.367Z,24.90
2023-02-11T17:52:44.794Z,27.75
2023-02-11T17:55:12.073Z,34.65
2023-02-11T17:57:39.565Z,28.63
2023-02-11T18:00:07.866Z,27.83
2023-02-11T18:02:35.177Z,55.97
2023-02-11T18:05:02.515Z,38.17
2023-02-11T18:07:30.382Z,37.63
2023-02-11T18:09:57.719Z,29.25
2023-02-11T18:12:27.770Z,27.73
2023-02-11T18:14:57.897Z,29.25
2023-02-11T18:17:25.883Z,45.08
2023-02-11T18:19:56.119Z,30.33
2023-02-11T18:22:23.786Z,34.50
2023-02-11T18:24:54.741Z,40.38
2023-02-11T18:27:22.925Z,31.63
2023-02-11T18:29:50.331Z,52.58
2023-02-11T18:32:17.617Z,31.90
2023-02-11T18:34:44.870Z,28.27
2023-02-11T18:37:13.483Z,30.35
2023-02-11T18:39:41.094Z,30.25
2023-02-11T18:42:08.422Z,66.55
2023-02-11T18:44:35.801Z,33.75
2023-02-11T18:47:03.278Z,29.10
2023-02-11T18:49:30.602Z,29.52
2023-02-11T18:52:00.596Z,27.75
2023-02-11T18:54:27.911Z,27.88
2023-02-11T18:56:55.253Z,25.58
2023-02-11T18:59:22.463Z,33.58
2023-02-11T19:01:49.759Z,53.95
2023-02-11T19:04:20.137Z,29.05
2023-02-11T19:06:49.584Z,28.33
2023-02-11T19:09:18.352Z,27.80
2023-02-11T19:11:52.353Z,28.58
2023-02-11T19:14:21.307Z,30.00
2023-02-11T19:16:50.705Z,26.83
2023-02-11T19:19:18.718Z,30.27
2023-02-11T19:21:47.468Z,29.73
2023-02-11T19:24:16.221Z,26.20
2023-02-11T19:26:43.713Z,27.83
2023-02-11T19:29:11.350Z,27.67
2023-02-11T19:31:39.118Z,27.85
2023-02-11T19:34:07.604Z,32.15
2023-02-11T19:36:35.231Z,27.30
2023-02-11T19:39:03.019Z,28.70
2023-02-11T19:41:30.502Z,28.55
2023-02-11T19:43:57.894Z,26.45
2023-02-11T19:46:25.940Z,25.00
2023-02-11T19:48:53.261Z,27.10
2023-02-11T19:51:21.295Z,26.35
2023-02-11T19:53:49.138Z,26.00
2023-02-11T19:56:18.667Z,24.60
2023-02-11T19:58:47.702Z,24.77
2023-02-11T20:01:16.243Z,25.27
2023-02-11T20:03:43.547Z,24.40
2023-02-11T20:06:17.701Z,23.00
2023-02-11T20:08:45.029Z,21.63
2023-02-11T20:11:16.607Z,22.40
2023-02-11T20:13:44.281Z,24.50
2023-02-11T20:16:13.228Z,26.90
2023-02-11T20:18:41.019Z,23.60
2023-02-11T20:21:08.945Z,22.40
2023-02-11T20:23:36.369Z,23.25
2023-02-11T20:26:14.583Z,23.77
2023-02-11T20:28:42.200Z,22.52
2023-02-11T20:31:11.168Z,23.88
2023-02-11T20:33:38.902Z,22.13
2023-02-11T20:36:06.352Z,23.65
2023-02-11T20:38:34.020Z,23.38
2023-02-11T20:41:10.492Z,25.08
2023-02-11T20:43:48.047Z,24.73
2023-02-11T20:46:17.075Z,24.92
2023-02-11T20:48:44.690Z,22.52
2023-02-11T20:51:16.568Z,23.70
2023-02-11T20:53:44.646Z,23.85
2023-02-11T20:56:12.797Z,23.27
2023-02-11T20:58:40.485Z,23.80
2023-02-11T21:01:08.770Z,23.42
2023-02-11T21:03:36.123Z,23.13
2023-02-11T21:06:03.541Z,22.77
2023-02-11T21:08:30.827Z,22.08
2023-02-11T21:10:58.158Z,21.85
2023-02-11T21:13:27.388Z,20.83
2023-02-11T21:15:57.966Z,22.08
2023-02-11T21:18:25.605Z,22.30
2023-02-11T21:20:54.972Z,19.63
2023-02-11T21:23:22.271Z,19.35
2023-02-11T21:25:49.586Z,19.73
2023-02-11T21:28:16.920Z,19.67
2023-02-11T21:30:44.332Z,21.15
2023-02-11T21:33:11.621Z,22.77
2023-02-11T21:35:38.997Z,18.88
2023-02-11T21:38:06.380Z,21.63
2023-02-11T21:40:33.624Z,18.65
2023-02-11T21:43:00.852Z,19.58
2023-02-11T21:45:28.318Z,21.25
2023-02-11T21:47:55.729Z,20.42
2023-02-11T21:50:23.124Z,20.20
2023-02-11T21:52:50.617Z,20.00
2023-02-11T21:55:17.880Z,20.48
2023-02-11T21:57:45.186Z,20.15
2023-02-11T22:00:12.910Z,18.92
2023-02-11T22:02:40.294Z,20.33
2023-02-11T22:05:07.615Z,19.25
2023-02-11T22:07:36.517Z,19.63
2023-02-11T22:10:04.530Z,19.85
2023-02-11T22:12:31.786Z,20.27
2023-02-11T22:14:59.029Z,18.13
2023-02-11T22:17:26.333Z,18.90
2023-02-11T22:19:53.622Z,18.55
2023-02-11T22:22:21.339Z,20.10
2023-02-11T22:24:49.464Z,19.38
2023-02-11T22:27:20.130Z,18.60
2023-02-11T22:29:47.648Z,21.10
2023-02-11T22:32:14.987Z,20.17
2023-02-11T22:34:42.260Z,20.83
2023-02-11T22:37:09.598Z,19.63
2023-02-11T22:39:36.878Z,20.45
2023-02-11T22:42:04.265Z,22.02
2023-02-11T22:44:31.576Z,20.45
2023-02-11T22:46:58.820Z,21.05
2023-02-11T22:49:26.356Z,20.70
2023-02-11T22:51:53.698Z,20.45
2023-02-11T22:54:21.017Z,22.13
2023-02-11T22:56:50.713Z,22.35
2023-02-11T22:59:18.370Z,21.38
2023-02-11T23:01:47.254Z,23.30
2023-02-11T23:04:16.007Z,23.65
2023-02-11T23:06:43.505Z,23.00
2023-02-11T23:09:14.476Z,24.65
2023-02-11T23:11:41.894Z,25.95
2023-02-11T23:14:12.129Z,23.35
2023-02-11T23:16:39.896Z,24.90
2023-02-11T23:19:09.719Z,24.52
2023-02-11T23:21:38.301Z,21.77
2023-02-11T23:24:11.051Z,22.15
2023-02-11T23:26:39.472Z,21.80
2023-02-11T23:29:07.049Z,22.13
2023-02-11T23:31:37.597Z,20.23
2023-02-11T23:34:05.257Z,23.60
2023-02-11T23:36:32.540Z,22.50
2023-02-11T23:38:59.815Z,21.98
2023-02-11T23:41:27.128Z,20.13
2023-02-11T23:43:55.523Z,20.67
2023-02-11T23:46:23.658Z,21.20
2023-02-11T23:48:51.499Z,21.67
2023-02-11T23:51:19.039Z,21.90
2023-02-11T23:53:46.500Z,21.10
2023-02-11T23:56:24.161Z,20.02
2023-02-11T23:58:52.632Z,18.70
